createdAt,value
2019-05-06T00:00:34.176Z,1017.46
2019-05-06T00:01:35.007Z,1017.46
2019-05-06T00:02:34.230Z,1017.43
2019-05-06T00:03:34.523Z,1017.42
2019-05-06T00:04:35.520Z,1017.48
2019-05-06T00:05:34.715Z,1017.48
2019-05-06T00:06:34.971Z,1017.45
2019-05-06T00:07:35.066Z,1017.51
2019-05-06T00:08:35.323Z,1017.56
2019-05-06T00:09:35.429Z,1017.54
2019-05-06T00:10:35.680Z,1017.50
2019-05-06T00:11:35.807Z,1017.52
2019-05-06T00:13:09.457Z,1017.55
2019-05-06T00:13:36.280Z,1017.57
2019-05-06T00:14:36.516Z,1017.62
2019-05-06T00:15:36.640Z,1017.59
2019-05-06T00:16:36.868Z,1017.62
2019-05-06T00:17:37.110Z,1017.63
2019-05-06T00:18:37.230Z,1017.61
2019-05-06T00:19:37.370Z,1017.64
2019-05-06T00:20:37.473Z,1017.66
2019-05-06T00:21:37.701Z,1017.65
2019-05-06T00:22:37.831Z,1017.70
2019-05-06T00:23:38.333Z,1017.65
2019-05-06T00:24:39.109Z,1017.66
2019-05-06T00:25:38.313Z,1017.73
2019-05-06T00:26:38.447Z,1017.74
2019-05-06T00:27:39.170Z,1017.75
2019-05-06T00:28:39.679Z,1017.76
2019-05-06T00:29:38.931Z,1017.77
2019-05-06T00:30:39.079Z,1017.75
2019-05-06T00:31:40.156Z,1017.77
2019-05-06T00:32:39.450Z,1017.79
2019-05-06T00:33:39.635Z,1017.81
2019-05-06T00:34:39.797Z,1017.82
2019-05-06T00:35:40.660Z,1017.79
2019-05-06T00:36:40.661Z,1017.84
2019-05-06T00:37:40.316Z,1017.88
2019-05-06T00:38:40.468Z,1017.90
2019-05-06T00:39:40.603Z,1017.84
2019-05-06T00:41:14.427Z,1017.86
2019-05-06T00:41:40.908Z,1017.90
2019-05-06T00:42:41.191Z,1017.87
2019-05-06T00:43:41.311Z,1017.86
2019-05-06T00:44:41.490Z,1017.93
2019-05-06T00:45:41.608Z,1017.92
2019-05-06T00:46:43.695Z,1017.91
2019-05-06T00:47:41.847Z,1017.91
2019-05-06T00:48:42.100Z,1017.96
2019-05-06T00:49:43.615Z,1017.95
2019-05-06T00:50:44.206Z,1017.95
2019-05-06T00:51:43.991Z,1017.97
2019-05-06T00:52:44.695Z,1018.05
2019-05-06T00:53:43.972Z,1018.07
2019-05-06T00:54:43.664Z,1018.08
2019-05-06T00:55:45.189Z,1017.96
2019-05-06T00:56:44.763Z,1018.01
2019-05-06T00:57:44.681Z,1018.02
2019-05-06T00:58:43.927Z,1018.01
2019-05-06T00:59:44.259Z,1018.01
2019-05-06T01:00:45.371Z,1018.03
2019-05-06T01:01:44.598Z,1018.03
2019-05-06T01:02:44.738Z,1018.05
2019-05-06T01:03:44.869Z,1018.04
2019-05-06T01:04:45.048Z,1018.01
2019-05-06T01:05:45.224Z,1018.03
2019-05-06T01:06:45.413Z,1018.04
2019-05-06T01:07:46.194Z,1018.03
2019-05-06T01:08:45.680Z,1018.03
2019-05-06T01:10:19.273Z,1018.01
2019-05-06T01:10:45.992Z,1018.04
2019-05-06T01:11:46.170Z,1018.08
2019-05-06T01:12:46.346Z,1018.08
2019-05-06T01:13:46.555Z,1018.04
2019-05-06T01:14:46.748Z,1018.11
2019-05-06T01:15:46.896Z,1018.09
2019-05-06T01:16:47.030Z,1018.07
2019-05-06T01:17:47.200Z,1018.17
2019-05-06T01:18:47.372Z,1018.16
2019-05-06T01:19:47.515Z,1018.17
2019-05-06T01:20:47.668Z,1018.24
2019-05-06T01:21:47.837Z,1018.29
2019-05-06T01:22:48.006Z,1018.24
2019-05-06T01:23:48.177Z,1018.24
2019-05-06T01:24:49.231Z,1018.25
2019-05-06T01:25:48.489Z,1018.26
2019-05-06T01:26:48.745Z,1018.29
2019-05-06T01:27:48.875Z,1018.35
2019-05-06T01:28:49.010Z,1018.33
2019-05-06T01:29:50.208Z,1018.34
2019-05-06T01:30:49.404Z,1018.32
2019-05-06T01:31:49.728Z,1018.34
2019-05-06T01:32:49.839Z,1018.36
2019-05-06T01:33:50.717Z,1018.36
2019-05-06T01:34:50.168Z,1018.41
2019-05-06T01:35:51.208Z,1018.43
2019-05-06T01:36:50.445Z,1018.38
2019-05-06T01:37:50.556Z,1018.35
2019-05-06T01:38:50.813Z,1018.39
2019-05-06T01:39:50.964Z,1018.40
2019-05-06T01:40:51.099Z,1018.41
2019-05-06T01:41:53.541Z,1018.43
2019-05-06T01:42:51.389Z,1018.45
2019-05-06T01:43:52.206Z,1018.45
2019-05-06T01:44:53.748Z,1018.45
2019-05-06T01:45:53.632Z,1018.51
2019-05-06T01:46:54.030Z,1018.46
2019-05-06T01:47:54.286Z,1018.48
2019-05-06T01:48:53.640Z,1018.46
2019-05-06T01:49:54.209Z,1018.52
2019-05-06T01:50:54.025Z,1018.53
2019-05-06T01:51:54.669Z,1018.47
2019-05-06T01:52:54.060Z,1018.55
2019-05-06T01:53:54.629Z,1018.55
2019-05-06T01:54:54.414Z,1018.49
2019-05-06T01:55:54.566Z,1018.50
2019-05-06T01:56:54.752Z,1018.49
2019-05-06T01:57:54.967Z,1018.51
2019-05-06T01:58:54.180Z,1018.48
2019-05-06T01:59:55.207Z,1018.51
2019-05-06T02:00:54.554Z,1018.49
2019-05-06T02:02:00.638Z,1018.52
2019-05-06T02:02:56.861Z,1018.56
2019-05-06T02:03:55.009Z,1018.52
2019-05-06T02:04:55.260Z,1018.62
2019-05-06T02:05:55.353Z,1018.61
2019-05-06T02:06:55.589Z,1018.57
2019-05-06T02:07:56.214Z,1018.55
2019-05-06T02:08:55.945Z,1018.60
2019-05-06T02:09:56.084Z,1018.59
2019-05-06T02:10:56.226Z,1018.58
2019-05-06T02:11:56.330Z,1018.59
2019-05-06T02:12:56.554Z,1018.58
2019-05-06T02:13:56.792Z,1018.59
2019-05-06T02:14:56.895Z,1018.56
2019-05-06T02:15:57.018Z,1018.60
2019-05-06T02:16:57.714Z,1018.56
2019-05-06T02:17:57.306Z,1018.59
2019-05-06T02:18:58.439Z,1018.61
2019-05-06T02:19:57.669Z,1018.67
2019-05-06T02:20:57.808Z,1018.65
2019-05-06T02:21:57.945Z,1018.59
2019-05-06T02:22:58.087Z,1018.66
2019-05-06T02:23:58.310Z,1018.63
2019-05-06T02:24:58.568Z,1018.62
2019-05-06T02:25:58.680Z,1018.68
2019-05-06T02:26:58.928Z,1018.66
2019-05-06T02:27:59.056Z,1018.64
2019-05-06T02:28:59.219Z,1018.60
2019-05-06T02:29:59.358Z,1018.64
2019-05-06T02:30:59.485Z,1018.65
2019-05-06T02:32:15.927Z,1018.64
2019-05-06T02:33:04.199Z,1018.62
2019-05-06T02:34:00.002Z,1018.64
2019-05-06T02:35:00.713Z,1018.64
2019-05-06T02:36:00.341Z,1018.68
2019-05-06T02:37:00.496Z,1018.69
2019-05-06T02:38:00.632Z,1018.71
2019-05-06T02:39:03.402Z,1018.78
2019-05-06T02:40:04.004Z,1018.72
2019-05-06T02:41:03.474Z,1018.74
2019-05-06T02:42:03.948Z,1018.75
2019-05-06T02:43:03.301Z,1018.71
2019-05-06T02:44:03.624Z,1018.71
2019-05-06T02:45:03.907Z,1018.78
2019-05-06T02:46:04.213Z,1018.77
2019-05-06T02:47:03.115Z,1018.77
2019-05-06T02:48:04.515Z,1018.76
2019-05-06T02:49:04.030Z,1018.74
2019-05-06T02:50:04.517Z,1018.77
2019-05-06T02:51:04.115Z,1018.75
2019-05-06T02:52:03.265Z,1018.78
2019-05-06T02:53:04.096Z,1018.75
2019-05-06T02:54:03.733Z,1018.73
2019-05-06T02:55:06.096Z,1018.68
2019-05-06T02:56:04.283Z,1018.75
2019-05-06T02:57:04.687Z,1018.78
2019-05-06T02:58:03.937Z,1018.70
2019-05-06T02:59:04.718Z,1018.76
2019-05-06T03:00:05.342Z,1018.72
2019-05-06T03:01:05.453Z,1018.72
2019-05-06T03:02:04.582Z,1018.63
2019-05-06T03:03:38.109Z,1018.71
2019-05-06T03:04:04.957Z,1018.66
2019-05-06T03:05:05.081Z,1018.63
2019-05-06T03:06:05.246Z,1018.64
2019-05-06T03:07:05.402Z,1018.63
2019-05-06T03:08:05.530Z,1018.66
2019-05-06T03:09:05.672Z,1018.57
2019-05-06T03:10:05.826Z,1018.55
2019-05-06T03:11:05.965Z,1018.58
2019-05-06T03:12:06.254Z,1018.52
2019-05-06T03:13:06.253Z,1018.60
2019-05-06T03:14:06.371Z,1018.54
2019-05-06T03:15:06.607Z,1018.52
2019-05-06T03:16:06.872Z,1018.47
2019-05-06T03:17:07.020Z,1018.47
2019-05-06T03:18:07.253Z,1018.43
2019-05-06T03:19:07.357Z,1018.39
2019-05-06T03:20:07.496Z,1018.43
2019-05-06T03:21:07.630Z,1018.40
2019-05-06T03:22:07.884Z,1018.38
2019-05-06T03:23:08.018Z,1018.35
2019-05-06T03:24:08.160Z,1018.38
2019-05-06T03:25:08.327Z,1018.36
2019-05-06T03:26:08.441Z,1018.36
2019-05-06T03:27:08.605Z,1018.31
2019-05-06T03:28:08.754Z,1018.32
2019-05-06T03:29:08.895Z,1018.28
2019-05-06T03:30:09.039Z,1018.28
2019-05-06T03:31:09.163Z,1018.31
2019-05-06T03:33:21.628Z,1018.24
2019-05-06T03:34:35.334Z,1018.32
2019-05-06T03:35:31.136Z,1018.37
2019-05-06T03:36:22.686Z,1018.29
2019-05-06T03:37:16.704Z,1018.26
2019-05-06T03:38:13.762Z,1018.29
2019-05-06T03:39:13.891Z,1018.27
2019-05-06T03:40:13.837Z,1018.30
2019-05-06T03:41:13.928Z,1018.29
2019-05-06T03:42:16.331Z,1018.28
2019-05-06T03:43:13.146Z,1018.20
2019-05-06T03:44:16.322Z,1018.23
2019-05-06T03:45:13.264Z,1018.26
2019-05-06T03:46:14.350Z,1018.21
2019-05-06T03:47:14.007Z,1018.21
2019-05-06T03:48:13.460Z,1018.15
2019-05-06T03:49:13.495Z,1018.20
2019-05-06T03:50:13.739Z,1018.10
2019-05-06T03:51:13.665Z,1018.15
2019-05-06T03:52:14.024Z,1018.13
2019-05-06T03:53:14.073Z,1018.03
2019-05-06T03:54:14.445Z,1018.04
2019-05-06T03:55:14.035Z,1018.01
2019-05-06T03:56:19.411Z,1017.96
2019-05-06T03:57:15.913Z,1018.02
2019-05-06T03:58:14.143Z,1017.92
2019-05-06T03:59:14.283Z,1017.99
2019-05-06T04:00:47.855Z,1017.99
2019-05-06T04:01:14.574Z,1018.00
2019-05-06T04:02:14.728Z,1017.96
2019-05-06T04:03:14.873Z,1018.07
2019-05-06T04:04:15.004Z,1017.95
2019-05-06T04:05:15.153Z,1018.05
2019-05-06T04:06:15.303Z,1017.94
2019-05-06T04:07:16.294Z,1017.95
2019-05-06T04:08:15.663Z,1017.97
2019-05-06T04:09:15.908Z,1017.97
2019-05-06T04:10:16.133Z,1017.94
2019-05-06T04:11:16.389Z,1017.98
2019-05-06T04:12:16.508Z,1017.94
2019-05-06T04:13:16.748Z,1017.93
2019-05-06T04:14:16.882Z,1017.93
2019-05-06T04:15:17.309Z,1017.84
2019-05-06T04:16:17.325Z,1017.95
2019-05-06T04:17:17.589Z,1017.91
2019-05-06T04:18:17.703Z,1017.93
2019-05-06T04:19:18.801Z,1017.90
2019-05-06T04:20:18.021Z,1017.87
2019-05-06T04:21:18.174Z,1017.87
2019-05-06T04:22:18.275Z,1017.80
2019-05-06T04:23:18.513Z,1017.85
2019-05-06T04:24:19.294Z,1017.77
2019-05-06T04:25:18.881Z,1017.83
2019-05-06T04:26:20.066Z,1017.83
2019-05-06T04:27:19.142Z,1017.82
2019-05-06T04:28:19.289Z,1017.86
2019-05-06T04:29:19.398Z,1017.86
2019-05-06T04:30:19.538Z,1017.86
2019-05-06T04:31:22.693Z,1017.86
2019-05-06T04:32:23.258Z,1017.79
2019-05-06T04:33:20.052Z,1017.80
2019-05-06T04:34:23.204Z,1017.76
2019-05-06T04:35:22.763Z,1017.75
2019-05-06T04:36:23.499Z,1017.75
2019-05-06T04:37:23.912Z,1017.78
2019-05-06T04:38:23.595Z,1017.80
2019-05-06T04:39:23.339Z,1017.75
2019-05-06T04:40:23.876Z,1017.74
2019-05-06T04:41:23.161Z,1017.70
2019-05-06T04:42:26.557Z,1017.75
2019-05-06T04:43:26.583Z,1017.64
2019-05-06T04:44:23.894Z,1017.64
2019-05-06T04:45:23.896Z,1017.71
2019-05-06T04:46:23.832Z,1017.60
2019-05-06T04:47:24.486Z,1017.62
2019-05-06T04:48:24.226Z,1017.58
2019-05-06T04:49:23.793Z,1017.57
2019-05-06T04:50:24.541Z,1017.52
2019-05-06T04:51:24.758Z,1017.50
2019-05-06T04:52:25.979Z,1017.44
2019-05-06T04:53:27.091Z,1017.47
2019-05-06T04:54:26.635Z,1017.37
2019-05-06T04:55:25.064Z,1017.38
2019-05-06T04:56:24.222Z,1017.28
2019-05-06T04:57:24.806Z,1017.29
2019-05-06T04:58:24.612Z,1017.28
2019-05-06T04:59:24.819Z,1017.28
2019-05-06T05:00:25.313Z,1017.16
2019-05-06T05:01:25.116Z,1017.18
2019-05-06T05:02:25.818Z,1017.10
2019-05-06T05:03:25.478Z,1017.12
2019-05-06T05:04:32.312Z,1017.13
2019-05-06T05:05:28.807Z,1017.09
2019-05-06T05:06:25.949Z,1017.07
2019-05-06T05:07:26.205Z,1017.04
2019-05-06T05:08:26.401Z,1017.05
2019-05-06T05:09:26.597Z,1016.93
2019-05-06T05:10:26.839Z,1016.96
2019-05-06T05:11:27.054Z,1016.93
2019-05-06T05:12:27.313Z,1016.92
2019-05-06T05:13:27.525Z,1016.88
2019-05-06T05:14:28.298Z,1016.86
2019-05-06T05:15:27.923Z,1016.88
2019-05-06T05:16:28.082Z,1016.87
2019-05-06T05:17:28.211Z,1016.82
2019-05-06T05:18:28.307Z,1016.79
2019-05-06T05:19:28.561Z,1016.76
2019-05-06T05:20:37.730Z,1016.71
2019-05-06T05:21:32.239Z,1016.73
2019-05-06T05:22:29.014Z,1016.70
2019-05-06T05:23:29.244Z,1016.71
2019-05-06T05:24:31.424Z,1016.68
2019-05-06T05:25:29.646Z,1016.67
2019-05-06T05:26:31.722Z,1016.68
2019-05-06T05:27:30.128Z,1016.64
2019-05-06T05:28:32.064Z,1016.66
2019-05-06T05:29:32.416Z,1016.69
2019-05-06T05:30:32.706Z,1016.69
2019-05-06T05:31:32.935Z,1016.48
2019-05-06T05:32:32.122Z,1016.50
2019-05-06T05:33:32.830Z,1016.51
2019-05-06T05:34:39.877Z,1016.51
2019-05-06T05:35:33.555Z,1016.47
2019-05-06T05:36:32.833Z,1016.48
2019-05-06T05:37:32.946Z,1016.46
2019-05-06T05:38:32.186Z,1016.44
2019-05-06T05:39:33.294Z,1016.53
2019-05-06T05:40:33.518Z,1016.50
2019-05-06T05:41:33.372Z,1016.55
2019-05-06T05:42:33.921Z,1016.56
2019-05-06T05:43:33.833Z,1016.56
2019-05-06T05:44:33.307Z,1016.54
2019-05-06T05:45:33.429Z,1016.64
2019-05-06T05:46:34.314Z,1016.61
2019-05-06T05:47:34.306Z,1016.67
2019-05-06T05:48:34.041Z,1016.69
2019-05-06T05:49:34.158Z,1016.61
2019-05-06T05:50:34.819Z,1016.71
2019-05-06T05:51:34.569Z,1016.72
2019-05-06T05:52:35.304Z,1016.71
2019-05-06T05:53:34.909Z,1016.70
2019-05-06T05:54:35.041Z,1016.70
2019-05-06T05:55:35.290Z,1016.75
2019-05-06T05:56:35.525Z,1016.78
2019-05-06T05:57:35.639Z,1016.78
2019-05-06T05:58:35.878Z,1016.80
2019-05-06T05:59:36.101Z,1016.71
2019-05-06T06:00:36.219Z,1016.75
2019-05-06T06:01:36.827Z,1016.77
2019-05-06T06:02:36.550Z,1016.83
2019-05-06T06:03:36.669Z,1016.84
2019-05-06T06:04:36.903Z,1016.80
2019-05-06T06:05:37.051Z,1016.87
2019-05-06T06:06:37.211Z,1016.80
2019-05-06T06:07:37.317Z,1016.79
2019-05-06T06:08:38.323Z,1016.82
2019-05-06T06:09:37.780Z,1016.78
2019-05-06T06:10:38.012Z,1016.79
2019-05-06T06:11:38.159Z,1016.71
2019-05-06T06:12:38.270Z,1016.70
2019-05-06T06:13:38.508Z,1016.82
2019-05-06T06:14:39.320Z,1016.71
2019-05-06T06:15:38.797Z,1016.64
2019-05-06T06:16:38.914Z,1016.62
2019-05-06T06:17:40.170Z,1016.71
2019-05-06T06:18:39.376Z,1016.64
2019-05-06T06:19:39.590Z,1016.63
2019-05-06T06:20:42.414Z,1016.70
2019-05-06T06:21:40.019Z,1016.66
2019-05-06T06:22:42.444Z,1016.62
2019-05-06T06:23:41.956Z,1016.61
2019-05-06T06:24:42.808Z,1016.60
2019-05-06T06:25:42.366Z,1016.54
2019-05-06T06:26:42.977Z,1016.61
2019-05-06T06:27:42.045Z,1016.44
2019-05-06T06:28:42.582Z,1016.58
2019-05-06T06:29:45.310Z,1016.55
2019-05-06T06:30:42.786Z,1016.53
2019-05-06T06:31:42.903Z,1016.57
2019-05-06T06:32:43.107Z,1016.52
2019-05-06T06:33:42.948Z,1016.60
2019-05-06T06:34:43.475Z,1016.57
2019-05-06T06:36:03.655Z,1016.57
2019-05-06T06:36:43.834Z,1016.54
2019-05-06T06:37:43.824Z,1016.50
2019-05-06T06:38:43.170Z,1016.53
2019-05-06T06:39:43.385Z,1016.52
2019-05-06T06:40:43.601Z,1016.57
2019-05-06T06:41:43.718Z,1016.54
2019-05-06T06:42:43.967Z,1016.52
2019-05-06T06:43:44.101Z,1016.51
2019-05-06T06:44:45.223Z,1016.49
2019-05-06T06:45:44.438Z,1016.49
2019-05-06T06:46:44.567Z,1016.52
2019-05-06T06:47:45.316Z,1016.52
2019-05-06T06:48:44.905Z,1016.49
2019-05-06T06:49:45.062Z,1016.43
2019-05-06T06:50:45.187Z,1016.36
2019-05-06T06:51:45.835Z,1016.35
2019-05-06T06:52:46.319Z,1016.35
2019-05-06T06:53:46.317Z,1016.36
2019-05-06T06:54:45.790Z,1016.35
2019-05-06T06:55:45.926Z,1016.33
2019-05-06T06:56:46.063Z,1016.33
2019-05-06T06:57:46.197Z,1016.28
2019-05-06T06:58:46.824Z,1016.32
2019-05-06T06:59:46.554Z,1016.32
2019-05-06T07:00:46.663Z,1016.26
2019-05-06T07:01:46.801Z,1016.29
2019-05-06T07:02:46.914Z,1016.23
2019-05-06T07:03:47.166Z,1016.21
2019-05-06T07:04:47.304Z,1016.19
2019-05-06T07:05:47.425Z,1016.27
2019-05-06T07:06:47.681Z,1016.17
2019-05-06T07:07:48.104Z,1016.23
2019-05-06T07:08:47.990Z,1016.11
2019-05-06T07:09:48.233Z,1016.15
2019-05-06T07:10:48.350Z,1016.14
2019-05-06T07:11:48.591Z,1016.08
2019-05-06T07:12:48.731Z,1016.06
2019-05-06T07:13:48.851Z,1016.19
2019-05-06T07:14:49.087Z,1016.13
2019-05-06T07:15:49.329Z,1016.11
2019-05-06T07:16:49.587Z,1016.05
2019-05-06T07:17:49.828Z,1016.01
2019-05-06T07:18:49.815Z,1016.05
2019-05-06T07:19:50.056Z,1016.05
2019-05-06T07:20:52.401Z,1016.02
2019-05-06T07:21:52.238Z,1016.08
2019-05-06T07:22:52.887Z,1016.02
2019-05-06T07:23:52.859Z,1015.98
2019-05-06T07:24:52.757Z,1015.96
2019-05-06T07:25:53.798Z,1015.97
2019-05-06T07:26:52.428Z,1015.99
2019-05-06T07:27:52.979Z,1015.96
2019-05-06T07:28:52.785Z,1015.98
2019-05-06T07:29:52.350Z,1015.95
2019-05-06T07:30:53.087Z,1015.89
2019-05-06T07:31:53.503Z,1015.81
2019-05-06T07:32:53.491Z,1015.88
2019-05-06T07:33:53.333Z,1015.85
2019-05-06T07:34:53.268Z,1015.83
2019-05-06T07:35:54.056Z,1015.80
2019-05-06T07:36:53.278Z,1015.82
2019-05-06T07:37:53.393Z,1015.82
2019-05-06T07:38:53.523Z,1015.74
2019-05-06T07:39:53.658Z,1015.76
2019-05-06T07:40:53.755Z,1015.72
2019-05-06T07:41:54.332Z,1015.68
2019-05-06T07:42:54.196Z,1015.75
2019-05-06T07:43:54.324Z,1015.58
2019-05-06T07:44:54.481Z,1015.47
2019-05-06T07:45:54.619Z,1015.52
2019-05-06T07:46:54.740Z,1015.50
2019-05-06T07:47:54.947Z,1015.44
2019-05-06T07:48:55.117Z,1015.42
2019-05-06T07:49:55.319Z,1015.37
2019-05-06T07:50:55.473Z,1015.35
2019-05-06T07:51:55.729Z,1015.35
2019-05-06T07:52:55.849Z,1015.27
2019-05-06T07:53:56.010Z,1015.23
2019-05-06T07:54:56.155Z,1015.27
2019-05-06T07:55:56.843Z,1015.20
2019-05-06T07:56:56.483Z,1015.17
2019-05-06T07:57:57.335Z,1015.16
2019-05-06T07:58:56.835Z,1015.18
2019-05-06T07:59:56.969Z,1015.12
2019-05-06T08:00:57.341Z,1015.09
2019-05-06T08:01:57.347Z,1015.01
2019-05-06T08:02:57.472Z,1015.04
2019-05-06T08:03:57.723Z,1014.95
2019-05-06T08:04:57.855Z,1014.89
2019-05-06T08:05:58.849Z,1014.88
2019-05-06T08:06:59.840Z,1014.87
2019-05-06T08:07:58.325Z,1014.83
2019-05-06T08:08:58.456Z,1014.85
2019-05-06T08:09:58.620Z,1014.78
2019-05-06T08:10:58.789Z,1014.83
2019-05-06T08:11:58.919Z,1014.73
2019-05-06T08:13:02.474Z,1014.74
2019-05-06T08:13:59.261Z,1014.64
2019-05-06T08:14:59.420Z,1014.67
2019-05-06T08:15:59.582Z,1014.65
2019-05-06T08:17:02.069Z,1014.58
2019-05-06T08:17:59.875Z,1014.62
2019-05-06T08:19:00.023Z,1014.50
2019-05-06T08:20:02.530Z,1014.50
2019-05-06T08:21:02.461Z,1014.47
2019-05-06T08:22:02.651Z,1014.36
2019-05-06T08:23:02.152Z,1014.37
2019-05-06T08:24:02.718Z,1014.25
2019-05-06T08:25:03.403Z,1014.25
2019-05-06T08:26:12.630Z,1014.29
2019-05-06T08:27:03.574Z,1014.11
2019-05-06T08:28:02.757Z,1014.08
2019-05-06T08:29:02.804Z,1013.97
2019-05-06T08:30:03.136Z,1013.97
2019-05-06T08:31:02.845Z,1013.88
2019-05-06T08:32:03.025Z,1013.95
2019-05-06T08:33:03.725Z,1013.84
2019-05-06T08:34:02.955Z,1013.74
2019-05-06T08:35:03.448Z,1013.78
2019-05-06T08:36:11.662Z,1013.79
2019-05-06T08:37:05.470Z,1013.74
2019-05-06T08:38:03.679Z,1013.72
2019-05-06T08:39:03.815Z,1013.67
2019-05-06T08:40:03.992Z,1013.57
2019-05-06T08:41:04.861Z,1013.53
2019-05-06T08:42:04.360Z,1013.54
2019-05-06T08:43:04.858Z,1013.52
2019-05-06T08:44:04.745Z,1013.55
2019-05-06T08:45:07.229Z,1013.56
2019-05-06T08:46:06.027Z,1013.57
2019-05-06T08:47:05.229Z,1013.61
2019-05-06T08:48:05.367Z,1013.58
2019-05-06T08:49:05.528Z,1013.50
2019-05-06T08:50:06.338Z,1013.31
2019-05-06T08:51:09.080Z,1012.96
2019-05-06T08:52:06.038Z,1012.88
2019-05-06T08:53:06.172Z,1012.64
2019-05-06T08:54:06.305Z,1012.54
2019-05-06T08:55:06.451Z,1012.37
2019-05-06T08:56:06.573Z,1012.14
2019-05-06T08:57:07.343Z,1012.15
2019-05-06T08:58:06.867Z,1012.03
2019-05-06T08:59:07.035Z,1011.96
2019-05-06T09:00:07.191Z,1011.95
2019-05-06T09:01:07.339Z,1011.93
2019-05-06T09:02:07.480Z,1011.98
2019-05-06T09:03:07.622Z,1012.17
2019-05-06T09:04:12.346Z,1012.23
2019-05-06T09:05:12.173Z,1012.27
2019-05-06T09:06:08.071Z,1012.36
2019-05-06T09:07:08.214Z,1012.49
2019-05-06T09:08:08.365Z,1012.57
2019-05-06T09:09:08.559Z,1012.69
2019-05-06T09:10:08.683Z,1012.75
2019-05-06T09:11:08.853Z,1012.86
2019-05-06T09:12:09.037Z,1012.96
2019-05-06T09:13:09.208Z,1013.05
2019-05-06T09:14:10.118Z,1012.97
2019-05-06T09:15:12.504Z,1013.04
2019-05-06T09:16:12.809Z,1013.08
2019-05-06T09:17:11.978Z,1013.17
2019-05-06T09:18:12.297Z,1013.14
2019-05-06T09:19:12.669Z,1013.22
2019-05-06T09:20:13.026Z,1013.23
2019-05-06T09:21:12.302Z,1013.25
2019-05-06T09:22:12.929Z,1013.30
2019-05-06T09:23:12.508Z,1013.27
2019-05-06T09:24:12.825Z,1013.33
2019-05-06T09:25:12.987Z,1013.24
2019-05-06T09:26:13.079Z,1013.23
2019-05-06T09:27:12.692Z,1013.05
2019-05-06T09:28:13.178Z,1012.83
2019-05-06T09:29:13.036Z,1012.60
2019-05-06T09:30:13.202Z,1012.37
2019-05-06T09:31:14.344Z,1012.21
2019-05-06T09:32:14.009Z,1012.10
2019-05-06T09:33:13.685Z,1012.00
2019-05-06T09:34:13.133Z,1011.79
2019-05-06T09:35:14.043Z,1011.38
2019-05-06T09:36:13.262Z,1011.20
2019-05-06T09:37:14.059Z,1010.83
2019-05-06T09:38:14.346Z,1010.56
2019-05-06T09:39:13.822Z,1010.28
2019-05-06T09:40:14.072Z,1009.93
2019-05-06T09:41:14.176Z,1009.75
2019-05-06T09:42:14.431Z,1009.50
2019-05-06T09:43:14.541Z,1009.44
2019-05-06T09:44:14.677Z,1009.40
2019-05-06T09:45:14.830Z,1009.40
2019-05-06T09:46:15.070Z,1009.44
2019-05-06T09:47:15.144Z,1009.37
2019-05-06T09:48:16.313Z,1009.49
2019-05-06T09:49:15.425Z,1009.45
2019-05-06T09:50:16.357Z,1009.51
2019-05-06T09:51:15.859Z,1009.62
2019-05-06T09:52:15.871Z,1009.67
2019-05-06T09:53:16.853Z,1009.87
2019-05-06T09:54:16.218Z,1010.02
2019-05-06T09:55:17.358Z,1010.19
2019-05-06T09:56:16.869Z,1010.37
2019-05-06T09:57:16.756Z,1010.40
2019-05-06T09:58:16.997Z,1010.44
2019-05-06T09:59:17.143Z,1010.41
2019-05-06T10:00:17.861Z,1010.36
2019-05-06T10:01:17.514Z,1010.48
2019-05-06T10:02:17.663Z,1010.47
2019-05-06T10:03:17.787Z,1010.59
2019-05-06T10:04:18.049Z,1010.58
2019-05-06T10:05:18.181Z,1010.71
2019-05-06T10:06:18.437Z,1010.69
2019-05-06T10:07:18.869Z,1010.87
2019-05-06T10:08:18.743Z,1010.94
2019-05-06T10:09:52.773Z,1010.90
2019-05-06T10:10:19.104Z,1010.86
2019-05-06T10:11:19.247Z,1010.84
2019-05-06T10:12:19.386Z,1010.84
2019-05-06T10:13:19.577Z,1010.80
2019-05-06T10:14:20.397Z,1010.80
2019-05-06T10:15:20.899Z,1010.82
2019-05-06T10:16:20.148Z,1010.74
2019-05-06T10:17:20.403Z,1010.67
2019-05-06T10:18:22.501Z,1010.57
2019-05-06T10:19:22.618Z,1010.44
2019-05-06T10:20:22.339Z,1010.42
2019-05-06T10:21:22.981Z,1010.34
2019-05-06T10:22:23.333Z,1010.13
2019-05-06T10:23:22.389Z,1010.06
2019-05-06T10:24:22.526Z,1010.04
2019-05-06T10:25:22.633Z,1009.92
2019-05-06T10:26:23.515Z,1009.92
2019-05-06T10:27:23.033Z,1009.78
2019-05-06T10:28:23.385Z,1009.78
2019-05-06T10:29:23.302Z,1009.71
2019-05-06T10:30:23.401Z,1009.62
2019-05-06T10:31:22.623Z,1009.48
2019-05-06T10:32:22.778Z,1009.50
2019-05-06T10:33:22.951Z,1009.43
2019-05-06T10:34:23.404Z,1009.46
2019-05-06T10:35:26.822Z,1009.56
2019-05-06T10:36:25.548Z,1009.62
2019-05-06T10:37:23.755Z,1009.71
2019-05-06T10:38:24.413Z,1009.83
2019-05-06T10:39:24.059Z,1010.00
2019-05-06T10:40:24.201Z,1009.98
2019-05-06T10:41:24.349Z,1010.16
2019-05-06T10:42:24.496Z,1010.33
2019-05-06T10:43:24.912Z,1010.42
2019-05-06T10:44:24.811Z,1010.56
2019-05-06T10:45:24.957Z,1010.59
2019-05-06T10:46:25.110Z,1010.54
2019-05-06T10:47:25.234Z,1010.58
2019-05-06T10:48:25.411Z,1010.64
2019-05-06T10:49:25.550Z,1010.78
2019-05-06T10:50:25.688Z,1010.80
2019-05-06T10:51:25.806Z,1010.81
2019-05-06T10:52:25.941Z,1010.79
2019-05-06T10:53:26.062Z,1010.67
2019-05-06T10:54:26.903Z,1010.46
2019-05-06T10:55:26.392Z,1010.34
2019-05-06T10:56:27.396Z,1010.18
2019-05-06T10:57:27.417Z,1010.14
2019-05-06T10:58:27.413Z,1009.93
2019-05-06T10:59:27.774Z,1009.85
2019-05-06T11:00:27.217Z,1009.72
2019-05-06T11:01:27.379Z,1009.60
2019-05-06T11:02:28.408Z,1009.58
2019-05-06T11:03:27.913Z,1009.61
2019-05-06T11:04:27.913Z,1009.58
2019-05-06T11:05:28.905Z,1009.70
2019-05-06T11:06:28.344Z,1009.79
2019-05-06T11:07:32.101Z,1009.90
2019-05-06T11:08:32.619Z,1009.99
2019-05-06T11:09:28.958Z,1010.12
2019-05-06T11:10:38.026Z,1010.21
2019-05-06T11:11:37.889Z,1010.30
2019-05-06T11:12:32.601Z,1010.45
2019-05-06T11:13:32.276Z,1010.59
2019-05-06T11:14:31.948Z,1010.64
2019-05-06T11:15:32.843Z,1010.75
2019-05-06T11:16:30.134Z,1010.83
2019-05-06T11:17:32.503Z,1010.83
2019-05-06T11:18:33.157Z,1010.82
2019-05-06T11:19:32.590Z,1010.87
2019-05-06T11:20:33.276Z,1010.79
2019-05-06T11:21:32.842Z,1010.86
2019-05-06T11:22:32.762Z,1010.94
2019-05-06T11:23:33.721Z,1011.04
2019-05-06T11:24:32.749Z,1011.00
2019-05-06T11:25:33.403Z,1011.00
2019-05-06T11:26:31.886Z,1010.89
2019-05-06T11:27:35.279Z,1010.83
2019-05-06T11:28:34.897Z,1010.91
2019-05-06T11:29:33.926Z,1010.87
2019-05-06T11:30:33.567Z,1010.91
2019-05-06T11:31:33.353Z,1010.94
2019-05-06T11:32:33.834Z,1010.94
2019-05-06T11:33:33.069Z,1010.82
2019-05-06T11:34:34.089Z,1010.66
2019-05-06T11:35:33.349Z,1010.74
2019-05-06T11:36:33.467Z,1010.74
2019-05-06T11:37:45.819Z,1010.77
2019-05-06T11:38:36.410Z,1010.87
2019-05-06T11:39:33.974Z,1010.98
2019-05-06T11:40:34.183Z,1010.95
2019-05-06T11:41:34.223Z,1011.05
2019-05-06T11:42:35.894Z,1011.18
2019-05-06T11:43:35.585Z,1011.11
2019-05-06T11:44:34.798Z,1011.25
2019-05-06T11:45:34.920Z,1011.32
2019-05-06T11:46:35.153Z,1011.42
2019-05-06T11:47:35.307Z,1011.45
2019-05-06T11:48:35.462Z,1011.55
2019-05-06T11:49:36.496Z,1011.54
2019-05-06T11:50:36.418Z,1011.60
2019-05-06T11:51:35.894Z,1011.72
2019-05-06T11:52:36.073Z,1011.70
2019-05-06T11:53:37.206Z,1011.75
2019-05-06T11:54:37.421Z,1011.78
2019-05-06T11:55:38.785Z,1011.83
2019-05-06T11:56:48.861Z,1011.77
2019-05-06T11:57:39.097Z,1011.81
2019-05-06T11:58:37.292Z,1011.79
2019-05-06T11:59:37.421Z,1011.90
2019-05-06T12:00:37.940Z,1011.85
2019-05-06T12:01:37.705Z,1011.94
2019-05-06T12:02:37.837Z,1011.90
2019-05-06T12:03:38.916Z,1011.80
2019-05-06T12:04:38.122Z,1011.89
2019-05-06T12:05:38.384Z,1011.81
2019-05-06T12:06:38.510Z,1011.78
2019-05-06T12:07:38.756Z,1011.85
2019-05-06T12:08:38.875Z,1011.83